Time;durP1;ratioP1;P1;durP2;ratioP2;P2;SDS_P1;SDS_P2;PMS_P1;PMS_P2;Temp;Humidity;BMP_temperature;BMP_pressure;BME280_temperature;BME280_humidity;BME280_pressure;Samples;Min_cycle;Max_cycle;Signal;HPM_P1;HPM_P2
2021/07/22 00:01:42;;;;;;;7.28;4.80;;;;;;;14.48;89.93;101797.72;6276654;22;20008;-81
2021/07/22 00:04:07;;;;;;;7.75;5.10;;;;;;;14.90;89.93;101852.75;6276946;22;19984;-82
2021/07/22 00:06:33;;;;;;;8.82;5.00;;;;;;;14.28;90.11;101756.16;6277153;22;20008;-82
2021/07/22 00:08:59;;;;;;;7.32;5.68;;;;;;;13.90;89.95;101705.13;6302620;22;20014;-81
2021/07/22 00:11:25;;;;;;;13.82;6.25;;;;;;;13.95;90.55;101697.28;6302382;22;20015;-82
2021/07/22 00:13:50;;;;;;;7.35;5.20;;;;;;;13.96;90.58;101708.91;6303543;22;20095;-82
2021/07/22 00:16:17;;;;;;;9.02;5.40;;;;;;;14.23;90.89;101745.09;6302923;22;20004;-81
2021/07/22 00:18:43;;;;;;;9.32;5.40;;;;;;;14.89;90.93;101853.75;6303390;22;19983;-82
2021/07/22 00:21:09;;;;;;;11.57;5.78;;;;;;;14.54;91.24;101796.94;6303191;22;20075;-81
2021/07/22 00:23:35;;;;;;;12.65;6.18;;;;;;;14.15;91.34;101737.13;6303274;22;20059;-81
2021/07/22 00:26:05;;;;;;;11.15;5.32;;;;;;;13.99;90.95;101712.06;6277644;22;20003;-82
2021/07/22 00:28:30;;;;;;;9.57;5.25;;;;;;;14.88;91.71;101848.56;6277432;22;20011;-81
2021/07/22 00:30:57;;;;;;;9.88;5.22;;;;;;;14.00;91.65;101716.44;6275925;22;20010;-81
2021/07/22 00:33:23;;;;;;;10.88;5.55;;;;;;;14.13;91.80;101728.38;6276422;22;20011;-81
2021/07/22 00:35:48;;;;;;;9.27;5.50;;;;;;;14.04;91.75;101722.31;6275636;22;19987;-80
2021/07/22 00:38:15;;;;;;;7.90;5.55;;;;;;;14.60;92.15;101802.56;6302929;22;19984;-81
2021/07/22 00:40:47;;;;;;;9.10;5.50;;;;;;;14.16;92.54;101730.69;6303789;22;20025;-82
2021/07/22 00:43:13;;;;;;;14.23;5.85;;;;;;;14.41;92.38;101772.47;6302169;22;20004;-82
2021/07/22 00:45:39;;;;;;;12.52;6.05;;;;;;;14.16;92.12;101728.81;6302899;22;20055;-81
2021/07/22 00:48:04;;;;;;;11.13;5.78;;;;;;;14.41;92.45;101768.94;6275019;22;20019;-82
2021/07/22 00:50:31;;;;;;;13.18;5.90;;;;;;;14.05;92.55;101722.09;6301921;22;20000;-81
2021/07/22 00:52:58;;;;;;;12.85;5.97;;;;;;;14.64;92.75;101803.88;6275445;22;19996;-81
2021/07/22 00:55:27;;;;;;;9.15;5.65;;;;;;;14.26;92.72;101761.75;6302026;22;20011;-81
2021/07/22 00:57:53;;;;;;;10.32;5.68;;;;;;;14.01;92.90;101711.88;6273628;22;20085;-80
2021/07/22 01:00:19;;;;;;;9.25;5.45;;;;;;;14.90;93.06;101866.31;6276721;22;20008;-81
2021/07/22 01:02:45;;;;;;;12.57;6.05;;;;;;;14.38;92.91;101782.88;6302679;22;19988;-81
2021/07/22 01:05:11;;;;;;;12.07;5.80;;;;;;;14.03;92.83;101721.44;6303035;22;19996;-81
2021/07/22 01:07:37;;;;;;;10.00;5.75;;;;;;;13.90;92.91;101720.53;6276316;22;20004;-82
2021/07/22 01:10:04;;;;;;;9.02;5.85;;;;;;;13.90;93.12;101717.84;6302672;22;20000;-81
2021/07/22 01:12:30;;;;;;;9.82;5.78;;;;;;;14.31;93.20;101793.66;6303046;22;20055;-82
2021/07/22 01:14:56;;;;;;;10.20;6.00;;;;;;;14.29;93.46;101799.25;6275586;22;20014;-81
2021/07/22 01:17:47;;;;;;;11.45;6.05;;;;;;;14.69;93.44;101860.97;6275197;22;20401;-82
2021/07/22 01:20:23;;;;;;;9.68;6.18;;;;;;;13.95;93.51;101743.25;6275792;22;20004;-81
2021/07/22 01:22:50;;;;;;;9.98;6.80;;;;;;;13.94;93.75;101751.56;6301657;22;20010;-82
2021/07/22 01:25:17;;;;;;;11.27;6.18;;;;;;;13.76;93.67;101728.56;6275319;22;20037;-81
2021/07/22 01:27:43;;;;;;;9.65;6.18;;;;;;;13.73;94.32;101731.66;6275286;22;20015;-82
2021/07/22 01:30:10;;;;;;;14.20;6.60;;;;;;;14.07;94.29;101776.88;6272926;22;20055;-81
2021/07/22 01:32:35;;;;;;;11.88;7.10;;;;;;;14.61;94.03;101864.69;6274893;22;20018;-82
2021/07/22 01:35:01;;;;;;;10.75;7.25;;;;;;;14.35;94.67;101811.19;6275668;22;20004;-81
2021/07/22 01:37:27;;;;;;;10.38;6.13;;;;;;;14.10;94.84;101771.06;6274877;22;20004;-81
2021/07/22 01:39:54;;;;;;;11.98;6.15;;;;;;;13.73;94.28;101720.00;6301379;22;20010;-81
2021/07/22 01:42:20;;;;;;;9.55;6.63;;;;;;;13.81;94.39;101747.75;6276197;22;20052;-81
2021/07/22 01:44:45;;;;;;;12.63;6.70;;;;;;;14.25;94.70;101813.41;6302159;22;19983;-81
2021/07/22 01:47:11;;;;;;;11.45;6.78;;;;;;;14.33;95.12;101826.78;6274592;22;19999;-82
2021/07/22 01:49:37;;;;;;;11.60;6.45;;;;;;;13.94;94.80;101763.25;6275420;22;20003;-81
2021/07/22 01:52:07;;;;;;;9.50;6.25;;;;;;;13.64;94.52;101735.53;6301018;22;20000;-81
2021/07/22 01:54:32;;;;;;;10.80;6.03;;;;;;;14.21;94.88;101836.50;6302387;22;20000;-81
2021/07/22 01:56:59;;;;;;;8.90;6.00;;;;;;;13.89;94.65;101773.00;6276564;22;20030;-81
2021/07/22 01:59:25;;;;;;;10.55;5.68;;;;;;;13.76;94.89;101769.13;6301856;22;20007;-80
2021/07/22 02:01:51;;;;;;;10.52;5.97;;;;;;;13.81;94.81;101773.97;6300701;22;20014;-81
2021/07/22 02:04:17;;;;;;;8.63;6.00;;;;;;;13.56;94.71;101725.72;6275342;22;20000;-81
2021/07/22 02:06:42;;;;;;;11.02;5.80;;;;;;;13.76;94.73;101771.84;6274279;22;20012;-82
2021/07/22 02:09:08;;;;;;;9.48;5.43;;;;;;;14.22;94.51;101857.13;6301684;22;20006;-81
2021/07/22 02:11:34;;;;;;;10.95;5.55;;;;;;;13.44;94.48;101743.50;6274207;22;20003;-80
2021/07/22 02:13:59;;;;;;;11.85;5.85;;;;;;;13.32;94.32;101728.84;6300980;22;20003;-80
2021/07/22 02:16:25;;;;;;;12.32;5.90;;;;;;;13.57;94.17;101773.34;6275202;22;20003;-80
2021/07/22 02:18:51;;;;;;;8.65;5.88;;;;;;;13.37;94.35;101739.91;6273838;22;20004;-81
2021/07/22 02:21:16;;;;;;;8.48;5.47;;;;;;;13.29;94.51;101721.97;6274248;22;19999;-81
2021/07/22 02:23:42;;;;;;;9.07;5.80;;;;;;;13.44;94.40;101759.72;6300135;22;19988;-80
2021/07/22 02:26:08;;;;;;;8.10;6.40;;;;;;;13.31;94.44;101733.44;6300947;22;20000;-81
2021/07/22 02:28:36;;;;;;;9.02;6.32;;;;;;;13.82;94.50;101821.63;6273349;22;20003;-82
2021/07/22 02:31:02;;;;;;;9.70;6.45;;;;;;;13.13;94.67;101712.22;6273874;22;20082;-81
2021/07/22 02:33:28;;;;;;;11.15;6.75;;;;;;;13.42;94.69;101756.38;6273428;22;20000;-81
2021/07/22 02:35:56;;;;;;;9.32;6.30;;;;;;;13.76;94.48;101792.66;6300404;22;20025;-80
2021/07/22 02:38:21;;;;;;;8.85;6.20;;;;;;;13.30;94.64;101725.50;6300467;22;20015;-81
2021/07/22 02:40:47;;;;;;;9.30;6.25;;;;;;;13.43;94.94;101759.94;6300211;22;20023;-81
2021/07/22 02:43:12;;;;;;;10.73;6.53;;;;;;;13.83;95.10;101834.13;6300337;22;20000;-81
2021/07/22 02:45:38;;;;;;;10.95;6.55;;;;;;;13.15;94.86;101729.09;6300890;22;20006;-81
2021/07/22 02:48:05;;;;;;;8.93;5.88;;;;;;;13.56;94.84;101778.97;6299678;22;20004;-81
2021/07/22 02:50:32;;;;;;;8.75;6.20;;;;;;;13.99;95.20;101841.94;6274065;22;19997;-81
2021/07/22 02:53:04;;;;;;;14.45;6.80;;;;;;;13.54;95.11;101776.47;6300563;22;20000;-81
2021/07/22 02:55:30;;;;;;;9.80;6.63;;;;;;;14.05;95.11;101833.06;6273903;22;20008;-81
2021/07/22 02:57:55;;;;;;;12.35;6.60;;;;;;;13.83;95.28;101797.06;6268365;23;20054;-82
2021/07/22 03:00:21;;;;;;;13.20;7.32;;;;;;;13.34;95.40;101707.84;6269561;23;20023;-82
2021/07/22 03:02:47;;;;;;;12.25;6.80;;;;;;;13.81;95.29;101780.22;6243439;23;20008;-81
2021/07/22 03:05:13;;;;;;;10.93;6.70;;;;;;;13.80;95.49;101775.00;6268865;23;20026;-81
2021/07/22 03:07:39;;;;;;;11.90;6.65;;;;;;;13.70;95.32;101731.22;6267208;23;20000;-81
2021/07/22 03:10:05;;;;;;;11.02;6.47;;;;;;;13.65;94.91;101725.59;6242957;23;20003;-81
2021/07/22 03:12:31;;;;;;;12.77;6.95;;;;;;;14.02;94.80;101768.50;6268355;23;20004;-81
2021/07/22 03:14:56;;;;;;;14.10;7.15;;;;;;;13.92;94.38;101730.13;6268996;23;20171;-80
2021/07/22 03:17:22;;;;;;;12.35;6.47;;;;;;;14.50;94.04;101809.22;6242793;23;20004;-81
2021/07/22 03:19:48;;;;;;;11.57;6.68;;;;;;;14.37;93.55;101730.59;6242660;23;20003;-81
2021/07/22 03:22:15;;;;;;;11.55;6.80;;;;;;;14.71;92.56;101745.13;6245254;23;20036;-81
2021/07/22 03:24:40;;;;;;;11.27;6.45;;;;;;;14.86;91.44;101724.09;6271097;22;20012;-81
2021/07/22 03:27:06;;;;;;;7.22;5.85;;;;;;;15.15;90.34;101712.06;6272634;22;20068;-81
2021/07/22 03:29:32;;;;;;;9.38;6.30;;;;;;;15.85;89.84;101774.88;6245341;23;20004;-81
2021/07/22 03:32:02;;;;;;;12.05;5.57;;;;;;;15.96;88.56;101741.69;6270081;23;20074;-81
2021/07/22 03:34:27;;;;;;;14.38;5.60;;;;;;;16.29;87.49;101745.34;6261363;23;20003;-81
2021/07/22 03:36:53;;;;;;;10.98;6.22;;;;;;;16.57;86.54;101739.59;6272155;23;20007;-80
2021/07/22 03:39:18;;;;;;;8.32;5.50;;;;;;;16.85;85.74;101736.56;6271286;23;19988;-81
2021/07/22 03:41:48;;;;;;;9.80;5.85;;;;;;;17.38;84.60;101777.84;6273150;23;19988;-81
2021/07/22 03:44:17;;;;;;;11.15;5.10;;;;;;;17.45;83.77;101726.09;6272338;23;20003;-82
2021/07/22 03:46:43;;;;;;;11.32;4.72;;;;;;;17.92;82.44;101763.81;6271577;23;20023;-81
2021/07/22 03:49:08;;;;;;;9.68;4.60;;;;;;;18.06;81.69;101736.22;6246432;23;20031;-81
2021/07/22 03:51:34;;;;;;;8.00;4.63;;;;;;;18.14;80.54;101688.75;6247523;23;20028;-80
2021/07/22 03:54:00;;;;;;;7.00;4.70;;;;;;;18.44;79.13;101702.47;6272515;23;19996;-81
2021/07/22 03:56:26;;;;;;;8.13;4.32;;;;;;;18.76;78.40;101721.34;6272088;22;20027;-81
2021/07/22 03:58:55;;;;;;;7.32;4.63;;;;;;;19.49;77.64;101782.97;6271684;23;20008;-81
2021/07/22 04:01:20;;;;;;;7.72;4.25;;;;;;;19.69;76.50;101783.50;6272250;23;20011;-79
2021/07/22 04:03:46;;;;;;;8.68;4.35;;;;;;;19.92;75.74;101793.63;6273181;22;20047;-81
2021/07/22 04:06:12;;;;;;;6.35;4.07;;;;;;;19.82;74.68;101718.81;6272441;22;20028;-81
2021/07/22 04:08:38;;;;;;;9.57;4.28;;;;;;;19.66;73.86;101672.03;6273166;22;20062;-81
2021/07/22 04:11:04;;;;;;;8.45;4.30;;;;;;;20.64;73.08;101785.13;6272226;22;20039;-81
2021/07/22 04:13:29;;;;;;;6.70;4.10;;;;;;;20.06;72.18;101634.91;6272094;22;20007;-80
2021/07/22 04:15:55;;;;;;;7.50;4.40;;;;;;;21.29;71.08;101788.50;6272505;23;20060;-80
2021/07/22 04:18:21;;;;;;;5.85;4.20;;;;;;;21.30;70.40;101787.47;6273465;22;20027;-81
2021/07/22 04:20:46;;;;;;;6.45;3.70;;;;;;;21.81;70.02;101838.47;6272226;23;20000;-80
2021/07/22 04:23:12;;;;;;;6.15;3.90;;;;;;;21.36;68.83;101715.31;6272269;23;19992;-81
2021/07/22 04:25:38;;;;;;;6.18;3.90;;;;;;;21.57;68.40;101717.28;6272691;22;20008;-81
2021/07/22 04:28:03;;;;;;;8.45;4.25;;;;;;;21.82;67.61;101718.75;6271730;23;20012;-81
2021/07/22 04:30:29;;;;;;;7.00;4.00;;;;;;;22.44;67.03;101778.00;6271813;23;20019;-81
2021/07/22 04:32:58;;;;;;;5.85;3.40;;;;;;;22.02;66.52;101675.19;6272265;22;20008;-81
2021/07/22 04:35:23;;;;;;;8.93;4.20;;;;;;;22.78;66.06;101772.34;6272619;22;20358;-81
2021/07/22 04:37:49;;;;;;;7.55;3.80;;;;;;;22.75;65.61;101735.31;6272587;22;20011;-81
2021/07/22 04:40:15;;;;;;;6.82;3.60;;;;;;;22.69;65.10;101698.75;6272615;22;20063;-81
2021/07/22 04:42:40;;;;;;;8.40;3.72;;;;;;;22.48;64.99;101667.53;6273278;22;20004;-81
2021/07/22 04:45:06;;;;;;;6.53;3.80;;;;;;;22.55;64.80;101661.00;6272518;23;20011;-81
2021/07/22 04:47:32;;;;;;;9.18;4.53;;;;;;;22.61;64.93;101630.63;6272454;22;20008;-80
2021/07/22 04:49:58;;;;;;;6.65;3.50;;;;;;;23.16;64.13;101700.03;6271962;23;20015;-81
2021/07/22 04:52:24;;;;;;;6.93;3.90;;;;;;;22.90;63.65;101653.13;6271941;23;20008;-81
2021/07/22 04:54:49;;;;;;;6.80;3.70;;;;;;;23.73;63.53;101753.53;6273279;22;20000;-80
2021/07/22 04:57:15;;;;;;;6.22;3.40;;;;;;;23.64;63.67;101736.66;6270762;23;20096;-80
2021/07/22 04:59:41;;;;;;;7.15;3.75;;;;;;;23.25;62.77;101649.06;6271640;23;20015;-81
2021/07/22 05:02:06;;;;;;;6.38;3.50;;;;;;;23.99;62.92;101760.00;6273033;23;20012;-82
2021/07/22 05:04:32;;;;;;;5.20;3.13;;;;;;;24.09;62.01;101760.06;6272429;22;19996;-81
2021/07/22 05:06:58;;;;;;;8.40;3.67;;;;;;;23.92;62.56;101757.50;6270136;23;20000;-81
2021/07/22 05:09:23;;;;;;;5.30;3.20;;;;;;;24.17;62.58;101816.47;6271983;22;20031;-81
2021/07/22 05:11:49;;;;;;;8.98;3.80;;;;;;;23.47;62.10;101697.53;6272287;22;19985;-81
2021/07/22 05:14:17;;;;;;;7.60;3.70;;;;;;;23.93;62.36;101786.63;6271831;22;19988;-81
2021/07/22 05:16:43;;;;;;;9.07;3.40;;;;;;;23.91;62.55;101761.34;6246433;23;20000;-80
2021/07/22 05:19:10;;;;;;;6.15;3.28;;;;;;;23.18;61.92;101643.78;6271112;22;20014;-81
2021/07/22 05:21:36;;;;;;;6.60;3.60;;;;;;;23.83;62.15;101757.16;6271532;23;20045;-80
2021/07/22 05:24:02;;;;;;;6.93;3.30;;;;;;;23.52;61.75;101701.16;6273208;22;20012;-81
2021/07/22 05:26:27;;;;;;;9.15;3.83;;;;;;;24.18;62.04;101816.22;6272895;23;20048;-81
2021/07/22 05:28:53;;;;;;;5.45;3.20;;;;;;;23.61;62.23;101764.69;6272511;23;20019;-81
2021/07/22 05:31:19;;;;;;;5.82;3.17;;;;;;;23.56;62.83;101750.91;6274469;22;19993;-82
2021/07/22 05:33:44;;;;;;;6.57;3.55;;;;;;;22.81;62.44;101651.94;6274402;22;20000;-81
2021/07/22 05:36:10;;;;;;;5.05;3.28;;;;;;;23.76;62.97;101810.69;6274671;22;20003;-80
2021/07/22 05:38:37;;;;;;;6.70;3.80;;;;;;;22.49;62.89;101641.75;6271487;23;20011;-81
2021/07/22 05:41:05;;;;;;;5.90;3.40;;;;;;;23.50;63.06;101804.97;6272962;22;20011;-80
2021/07/22 05:43:31;;;;;;;6.55;3.10;;;;;;;22.83;62.73;101742.25;6271791;22;20016;-81
2021/07/22 05:45:59;;;;;;;6.15;3.53;;;;;;;21.95;63.28;101643.56;6271455;22;20008;-81
2021/07/22 05:48:25;;;;;;;7.00;3.55;;;;;;;21.65;63.64;101643.97;6271128;23;19996;-81
2021/07/22 05:50:51;;;;;;;5.63;3.40;;;;;;;21.16;64.86;101630.94;6270482;22;20039;-81
2021/07/22 05:53:17;;;;;;;7.35;3.35;;;;;;;21.30;65.48;101688.91;6269842;23;20020;-81
2021/07/22 05:55:43;;;;;;;5.90;3.15;;;;;;;20.91;65.50;101633.25;6273001;22;20027;-81
2021/07/22 06:11:08;;;;;;;6.80;3.47;;;;;;;21.77;66.49;101688.53;6302867;22;20038;-80
2021/07/22 06:26:49;;;;;;;9.05;3.88;;;;;;;21.33;65.88;101652.81;6288260;22;20023;-81
2021/07/22 06:29:15;;;;;;;8.25;3.45;;;;;;;21.06;65.91;101639.81;6289151;22;20059;-82
2021/07/22 06:31:40;;;;;;;9.20;3.50;;;;;;;21.52;65.31;101721.84;6279780;22;20008;-81
2021/07/22 06:36:41;;;;;;;14.02;3.42;;;;;;;21.40;64.90;101672.66;6226708;22;20012;-80
2021/07/22 06:39:07;;;;;;;8.27;3.45;;;;;;;21.50;65.05;101693.91;6270640;22;19992;-80
2021/07/22 06:41:32;;;;;;;9.73;3.83;;;;;;;21.51;64.75;101714.72;6244199;23;20015;-79
2021/07/22 06:43:58;;;;;;;7.38;3.42;;;;;;;21.50;64.79;101719.38;6265144;22;20008;-80
2021/07/22 06:46:23;;;;;;;6.63;3.13;;;;;;;21.70;64.10;101701.59;6266184;23;20377;-80
2021/07/22 06:48:54;;;;;;;8.05;3.63;;;;;;;21.22;63.77;101596.25;6270227;22;20005;-80
2021/07/22 06:51:20;;;;;;;9.77;3.85;;;;;;;22.72;63.23;101829.09;6241306;22;20015;-81
2021/07/22 06:53:46;;;;;;;8.13;3.50;;;;;;;21.86;62.91;101695.25;6244327;22;20044;-81
2021/07/22 06:56:11;;;;;;;6.13;3.10;;;;;;;22.12;63.11;101743.03;6245122;22;20054;-80
2021/07/22 06:58:37;;;;;;;9.00;3.90;;;;;;;21.41;63.31;101621.47;6274535;22;20018;-81
2021/07/22 07:01:05;;;;;;;7.25;3.28;;;;;;;21.83;62.63;101662.06;6303453;22;20008;-80
2021/07/22 07:03:30;;;;;;;8.73;3.20;;;;;;;22.05;61.94;101710.31;6283192;22;20036;-80
2021/07/22 07:05:56;;;;;;;9.50;3.10;;;;;;;21.49;62.13;101660.22;6303368;22;19992;-81
2021/07/22 07:10:57;;;;;;;8.85;3.70;;;;;;;21.29;62.51;101646.16;6259282;22;20034;-79
2021/07/22 07:15:58;;;;;;;8.52;3.30;;;;;;;22.53;62.37;101828.59;6249724;22;20023;-81
2021/07/22 07:18:27;;;;;;;6.15;3.10;;;;;;;21.37;62.08;101653.19;6303257;22;20070;-81
2021/07/22 07:23:29;;;;;;;8.55;3.22;;;;;;;21.24;62.93;101677.03;6290102;22;20022;-81
2021/07/22 07:25:55;;;;;;;8.20;3.53;;;;;;;22.12;62.87;101824.41;6302741;22;19996;-80
2021/07/22 07:28:21;;;;;;;9.57;3.60;;;;;;;21.11;62.87;101641.78;6303802;22;19992;-82
2021/07/22 07:30:49;;;;;;;7.72;3.55;;;;;;;20.94;61.40;101628.09;6277774;22;20042;-81
2021/07/22 07:33:15;;;;;;;9.23;3.30;;;;;;;21.54;60.89;101704.09;6303523;22;19987;-81
2021/07/22 07:35:43;;;;;;;12.10;3.92;;;;;;;21.38;60.55;101672.06;6303832;22;20050;-81
2021/07/22 07:38:09;;;;;;;6.93;2.97;;;;;;;21.37;60.92;101658.66;6262292;22;20010;-82
2021/07/22 07:48:21;;;;;;;7.13;3.55;;;;;;;21.97;60.51;101660.59;6230762;22;20020;-80
2021/07/22 07:56:01;;;;;;;7.88;3.28;;;;;;;21.81;59.32;101621.19;6271784;22;20005;-81
2021/07/22 08:08:47;;;;;;;5.68;3.00;;;;;;;21.37;58.11;101632.09;6253503;22;20008;-79
2021/07/22 08:11:13;;;;;;;7.68;3.10;;;;;;;22.33;58.59;101768.81;6261835;22;20098;-81
2021/07/22 08:13:39;;;;;;;7.65;3.25;;;;;;;21.98;57.91;101738.97;6268931;22;20026;-77
2021/07/22 08:16:05;;;;;;;9.18;3.28;;;;;;;22.27;57.81;101821.91;6271298;22;20008;-82
2021/07/22 08:21:06;;;;;;;6.32;2.85;;;;;;;21.17;57.69;101656.38;6236978;22;20029;-81
2021/07/22 08:23:32;;;;;;;6.45;2.83;;;;;;;21.61;58.57;101733.22;6218009;23;20020;-81
2021/07/22 08:25:58;;;;;;;5.50;2.90;;;;;;;21.76;58.30;101741.69;6217751;23;20004;-82
2021/07/22 08:28:23;;;;;;;8.85;3.13;;;;;;;21.26;57.79;101654.91;6243864;23;20008;-82
2021/07/22 08:30:49;;;;;;;7.00;3.17;;;;;;;21.74;57.26;101709.03;6244399;23;20004;-81
2021/07/22 08:33:15;;;;;;;7.65;3.10;;;;;;;21.88;56.86;101704.03;6217609;23;20016;-82
2021/07/22 08:35:40;;;;;;;8.07;2.83;;;;;;;22.28;56.50;101752.28;6244527;23;19992;-82
2021/07/22 08:38:06;;;;;;;7.47;3.00;;;;;;;22.07;56.70;101693.59;6219137;23;20011;-81
2021/07/22 08:40:32;;;;;;;8.30;2.65;;;;;;;22.30;56.31;101717.22;6244496;23;20032;-82
2021/07/22 08:43:04;;;;;;;7.70;3.05;;;;;;;22.44;55.51;101740.44;6243295;23;20081;-82
2021/07/22 08:45:30;;;;;;;9.20;2.90;;;;;;;21.89;54.90;101672.81;6243699;23;20072;-81
2021/07/22 08:47:58;;;;;;;9.35;2.85;;;;;;;22.90;54.64;101812.28;6244269;23;19996;-82
2021/07/22 08:50:24;;;;;;;7.47;2.95;;;;;;;22.02;54.59;101688.91;6243643;23;19997;-82
2021/07/22 08:52:51;;;;;;;8.90;3.40;;;;;;;21.92;55.42;101685.16;6217764;23;20048;-81
2021/07/22 08:55:17;;;;;;;8.43;3.35;;;;;;;21.94;54.60;101692.06;6216938;23;20019;-82
2021/07/22 08:57:44;;;;;;;8.52;2.80;;;;;;;22.72;54.97;101815.38;6217787;23;20008;-82
2021/07/22 09:00:10;;;;;;;8.45;3.00;;;;;;;22.32;55.50;101745.22;6218120;23;20019;-82
2021/07/22 09:02:36;;;;;;;9.00;3.13;;;;;;;22.19;56.20;101718.19;6244005;23;20036;-82
2021/07/22 09:05:04;;;;;;;6.28;2.42;;;;;;;21.84;54.98;101634.38;6218532;23;20004;-82
2021/07/22 09:07:31;;;;;;;8.27;3.20;;;;;;;22.55;55.03;101752.38;6217269;23;20000;-81
2021/07/22 09:10:06;;;;;;;7.90;3.03;;;;;;;23.10;55.22;101813.63;6217972;23;20033;-81
2021/07/22 09:12:35;;;;;;;11.93;3.25;;;;;;;22.86;56.23;101747.22;6219194;23;20024;-82
2021/07/22 09:17:36;;;;;;;8.82;3.33;;;;;;;22.24;56.05;101649.69;6297134;22;20055;-82
2021/07/22 09:20:03;;;;;;;8.88;3.72;;;;;;;21.77;56.11;101606.34;6305213;22;19988;-82
2021/07/22 09:22:39;;;;;;;8.30;3.35;;;;;;;21.65;56.47;101605.63;6305226;22;20004;-82
2021/07/22 09:25:05;;;;;;;10.27;3.05;;;;;;;21.67;57.65;101600.75;6279494;22;19992;-82
2021/07/22 09:27:31;;;;;;;7.07;3.38;;;;;;;23.03;57.71;101807.53;6305363;22;19991;-82
2021/07/22 09:29:57;;;;;;;9.52;3.15;;;;;;;22.02;58.67;101646.97;6263122;22;20019;-80
2021/07/22 09:32:33;;;;;;;8.75;3.92;;;;;;;21.75;59.23;101592.91;6273862;22;20004;-82
2021/07/22 09:37:34;;;;;;;10.23;3.50;;;;;;;22.41;59.12;101688.81;6257119;22;20024;-82
2021/07/22 09:39:59;;;;;;;7.95;3.30;;;;;;;22.21;59.67;101647.47;6278157;22;20049;-81
2021/07/22 10:53:09;;;;;;;11.00;3.80;;;;;;;23.44;61.60;101790.38;6217513;22;20129;31
2021/07/22 11:20:17;;;;;;;12.50;4.00;;;;;;;23.60;60.77;101780.31;6205888;22;20347;-80
2021/07/22 14:37:03;;;;;;;7.78;3.00;;;;;;;23.84;54.12;101604.91;6213680;22;20032;-81
2021/07/22 16:48:40;;;;;;;10.40;3.35;;;;;;;23.14;58.41;101427.66;6219012;22;20071;31
2021/07/22 21:19:07;;;;;;;11.82;4.50;;;;;;;17.01;80.19;101289.31;6217805;22;20011;-77
2021/07/22 21:34:29;;;;;;;16.38;5.10;;;;;;;17.09;83.16;101351.56;6233157;22;20038;-78
2021/07/22 22:40:08;;;;;;;12.95;6.18;;;;;;;16.28;85.25;101481.09;6242945;22;19919;31
2021/07/22 22:50:19;;;;;;;16.65;7.50;;;;;;;16.21;86.20;101481.13;6249134;22;20016;-80
2021/07/22 23:05:41;;;;;;;22.67;7.18;;;;;;;14.95;87.95;101346.19;6247116;22;21051;-78
2021/07/22 23:08:07;;;;;;;19.13;8.02;;;;;;;15.66;88.24;101455.56;6218140;22;20012;-81
